Terminal Aerodrome Forecast
Issued by NWS

Home | Current Version | Previous Version | Text Only | Print | Product List | Glossary On
Versions: 1 2 3 4 5 6 7 8 9 10 11 12 13 14 15 16 17
000
FTUS46 KSGX 301315 AAA
TAFTRM
TAF AMD
KTRM 301315Z 3013/3112 14005KT 4SM BLDU BKN020
     FM301500 13007KT 5SM HZ SCT008 SCT150
     FM301700 14010KT P6SM FEW010 SCT150
     FM310400 VRB05KT P6SM FEW200=

USA.gov is the U.S. government's official web portal to all federal, state and local government web resources and services.